createdAt,value
2022-12-27T00:01:23.327Z,95.13
2022-12-27T00:03:49.971Z,105.00
2022-12-27T00:06:22.463Z,100.00
2022-12-27T00:08:49.490Z,85.57
2022-12-27T00:11:19.375Z,99.22
2022-12-27T00:13:46.475Z,90.30
2022-12-27T00:16:20.644Z,86.13
2022-12-27T00:18:49.634Z,101.00
2022-12-27T00:21:17.699Z,95.40
2022-12-27T00:23:48.734Z,86.38
2022-12-27T00:26:35.761Z,95.47
2022-12-27T00:29:03.099Z,102.22
2022-12-27T00:31:31.550Z,101.72
2022-12-27T00:34:00.840Z,89.43
2022-12-27T00:36:29.563Z,83.00
2022-12-27T00:38:57.682Z,81.05
2022-12-27T00:41:25.000Z,93.68
2022-12-27T00:43:52.079Z,89.75
2022-12-27T00:46:19.484Z,97.78
2022-12-27T00:48:46.731Z,108.68
2022-12-27T00:51:19.803Z,119.50
2022-12-27T00:53:47.553Z,109.95
2022-12-27T00:56:16.831Z,113.68
2022-12-27T00:58:44.120Z,116.53
2022-12-27T01:01:18.383Z,116.63
2022-12-27T01:03:45.747Z,120.88
2022-12-27T01:06:15.346Z,112.95
2022-12-27T01:08:42.698Z,115.70
2022-12-27T01:11:10.081Z,112.85
2022-12-27T01:13:37.869Z,120.43
2022-12-27T01:16:14.757Z,117.90
2022-12-27T01:18:42.021Z,120.40
2022-12-27T01:21:10.824Z,117.68
2022-12-27T01:23:38.675Z,124.47
2022-12-27T01:26:08.429Z,128.77
2022-12-27T01:28:35.573Z,126.13
2022-12-27T01:31:24.778Z,118.00
2022-12-27T01:33:58.071Z,119.65
2022-12-27T01:36:26.687Z,112.40
2022-12-27T01:38:53.989Z,110.10
2022-12-27T01:41:48.491Z,109.75
2022-12-27T01:44:52.259Z,113.75
2022-12-27T01:47:40.402Z,112.22
2022-12-27T01:50:20.817Z,121.07
2022-12-27T01:53:21.147Z,113.25
2022-12-27T01:55:50.620Z,100.00
2022-12-27T01:58:25.127Z,104.78
2022-12-27T02:00:52.894Z,101.13
2022-12-27T02:03:27.203Z,103.22
2022-12-27T02:05:54.475Z,103.15
2022-12-27T02:08:43.895Z,88.90
2022-12-27T02:11:11.096Z,99.38
2022-12-27T02:13:42.498Z,97.57
2022-12-27T02:16:18.657Z,97.63
2022-12-27T02:18:46.358Z,90.43
2022-12-27T02:21:25.147Z,97.65
2022-12-27T02:24:10.514Z,95.13
2022-12-27T02:26:40.625Z,96.07
2022-12-27T02:29:26.080Z,95.00
2022-12-27T02:31:57.766Z,97.75
2022-12-27T02:35:04.195Z,99.65
2022-12-27T02:37:33.708Z,106.57
2022-12-27T02:40:23.269Z,116.05
2022-12-27T02:43:10.240Z,104.03
2022-12-27T02:46:02.509Z,106.32
2022-12-27T02:48:47.631Z,94.00
2022-12-27T02:51:50.565Z,97.60
2022-12-27T02:54:56.853Z,118.43
2022-12-27T02:57:52.177Z,111.88
2022-12-27T03:00:42.964Z,102.60
2022-12-27T03:03:45.120Z,127.93
2022-12-27T03:06:42.717Z,131.63
2022-12-27T03:09:35.880Z,138.63
2022-12-27T03:12:32.121Z,127.38
2022-12-27T03:15:30.381Z,123.53
2022-12-27T03:18:08.341Z,119.28
2022-12-27T03:20:55.369Z,111.60
2022-12-27T03:23:40.617Z,116.18
2022-12-27T03:26:09.151Z,106.13
2022-12-27T03:28:55.298Z,102.97
2022-12-27T03:31:46.105Z,97.70
2022-12-27T03:34:32.205Z,95.40
2022-12-27T03:37:26.203Z,95.68
2022-12-27T03:39:59.032Z,89.60
2022-12-27T03:42:46.717Z,95.47
2022-12-27T03:45:13.375Z,95.28
2022-12-27T03:47:50.367Z,96.65
2022-12-27T03:50:34.882Z,91.78
2022-12-27T03:53:11.809Z,85.95
2022-12-27T03:55:57.567Z,105.97
2022-12-27T03:58:24.169Z,97.20
2022-12-27T04:00:50.886Z,105.97
2022-12-27T04:03:17.553Z,104.90
2022-12-27T04:05:44.192Z,93.93
2022-12-27T04:08:29.410Z,97.32
2022-12-27T04:11:14.963Z,106.82
2022-12-27T04:13:59.831Z,89.40
2022-12-27T04:16:44.953Z,100.65
2022-12-27T04:19:30.621Z,84.85
2022-12-27T04:22:15.878Z,104.38
2022-12-27T04:25:01.030Z,78.90
2022-12-27T04:27:46.162Z,74.45
2022-12-27T04:30:31.384Z,95.25
2022-12-27T04:33:16.696Z,98.35
2022-12-27T04:35:43.315Z,110.07
2022-12-27T04:38:10.043Z,126.68
2022-12-27T04:40:55.525Z,91.53
2022-12-27T04:43:40.662Z,83.47
2022-12-27T04:46:38.902Z,79.05
2022-12-27T04:49:24.055Z,83.97
2022-12-27T04:52:09.159Z,74.13
2022-12-27T04:54:54.409Z,78.63
2022-12-27T04:57:21.138Z,88.28
2022-12-27T05:00:06.140Z,98.18
2022-12-27T05:02:33.085Z,99.32
2022-12-27T05:05:00.141Z,90.50
2022-12-27T05:07:45.672Z,92.13
2022-12-27T05:10:31.014Z,105.18
2022-12-27T05:13:16.293Z,86.32
2022-12-27T05:15:42.983Z,85.57
2022-12-27T05:18:09.887Z,82.10
2022-12-27T05:20:36.591Z,75.65
2022-12-27T05:23:22.019Z,73.35
2022-12-27T05:25:48.875Z,110.30
2022-12-27T05:28:15.456Z,77.60
2022-12-27T05:30:43.989Z,66.57
2022-12-27T05:33:11.287Z,71.95
2022-12-27T05:35:38.170Z,80.13
2022-12-27T05:38:05.090Z,73.53
2022-12-27T05:40:32.135Z,73.35
2022-12-27T05:43:00.533Z,86.53
2022-12-27T05:45:28.208Z,73.65
2022-12-27T05:47:55.047Z,73.50
2022-12-27T05:50:21.992Z,97.70
2022-12-27T05:52:48.570Z,108.13
2022-12-27T05:55:15.311Z,125.45
2022-12-27T05:57:42.039Z,139.95
2022-12-27T06:00:09.383Z,151.98
2022-12-27T06:02:36.883Z,160.90
2022-12-27T06:05:03.867Z,157.40
2022-12-27T06:07:30.420Z,155.55
2022-12-27T06:09:57.100Z,153.20
2022-12-27T06:12:23.794Z,151.48
2022-12-27T06:14:50.433Z,153.65
2022-12-27T06:17:17.045Z,161.63
2022-12-27T06:19:43.660Z,156.32
2022-12-27T06:22:10.609Z,161.23
2022-12-27T06:24:37.294Z,149.00
2022-12-27T06:27:04.105Z,141.63
2022-12-27T06:29:30.769Z,142.65
2022-12-27T06:31:57.531Z,131.95
2022-12-27T06:34:24.156Z,129.90
2022-12-27T06:36:52.419Z,118.55
2022-12-27T06:39:19.189Z,117.05
2022-12-27T06:41:46.311Z,103.20
2022-12-27T06:44:13.241Z,104.25
2022-12-27T06:46:39.836Z,100.85
2022-12-27T06:49:06.569Z,99.38
2022-12-27T06:51:34.359Z,91.72
2022-12-27T06:54:01.097Z,93.03
2022-12-27T06:56:27.935Z,92.55
2022-12-27T06:58:54.762Z,93.90
2022-12-27T07:01:24.118Z,89.80
2022-12-27T07:03:52.533Z,83.72
2022-12-27T07:06:20.731Z,84.95
2022-12-27T07:08:48.297Z,88.60
2022-12-27T07:11:15.515Z,92.18
2022-12-27T07:13:44.328Z,85.72
2022-12-27T07:16:14.348Z,96.93
2022-12-27T07:18:42.180Z,91.15
2022-12-27T07:21:11.172Z,86.82
2022-12-27T07:23:38.163Z,91.95
2022-12-27T07:26:07.135Z,90.15
2022-12-27T07:28:34.056Z,90.97
2022-12-27T07:31:05.572Z,95.72
2022-12-27T07:33:32.332Z,97.10
2022-12-27T07:36:02.233Z,96.38
2022-12-27T07:38:29.973Z,98.15
2022-12-27T07:41:00.129Z,98.40
2022-12-27T07:43:29.925Z,98.20
2022-12-27T07:46:03.754Z,107.88
2022-12-27T07:48:30.465Z,103.63
2022-12-27T07:50:57.177Z,118.93
2022-12-27T07:53:24.442Z,106.47
2022-12-27T07:55:51.256Z,97.60
2022-12-27T07:58:21.857Z,93.38
2022-12-27T08:00:51.291Z,102.35
2022-12-27T08:03:18.687Z,97.32
2022-12-27T08:05:49.657Z,95.22
2022-12-27T08:08:18.377Z,98.60
2022-12-27T08:10:45.074Z,102.95
2022-12-27T08:13:11.751Z,99.43
2022-12-27T08:15:42.183Z,94.35
2022-12-27T08:18:09.333Z,104.15
2022-12-27T08:20:36.614Z,106.28
2022-12-27T08:23:03.368Z,106.72
2022-12-27T08:25:30.077Z,100.47
2022-12-27T08:28:08.082Z,94.13
2022-12-27T08:30:35.049Z,103.47
2022-12-27T08:33:03.256Z,99.25
2022-12-27T08:35:52.195Z,97.75
2022-12-27T08:38:17.416Z,91.85
2022-12-27T08:40:45.857Z,97.00
2022-12-27T08:43:13.213Z,91.07
2022-12-27T08:45:39.996Z,101.05
2022-12-27T08:48:07.444Z,102.85
2022-12-27T08:50:34.391Z,91.45
2022-12-27T08:53:02.944Z,82.57
2022-12-27T08:55:30.656Z,95.53
2022-12-27T08:57:58.581Z,86.80
2022-12-27T09:00:26.557Z,81.00
2022-12-27T09:02:53.913Z,86.38
2022-12-27T09:05:22.236Z,88.95
2022-12-27T09:07:49.671Z,86.03
2022-12-27T09:10:17.453Z,81.72
2022-12-27T09:12:45.656Z,89.18
2022-12-27T09:15:12.438Z,82.55
2022-12-27T09:17:39.702Z,86.03
2022-12-27T09:20:06.978Z,86.57
2022-12-27T09:22:33.944Z,88.30
2022-12-27T09:25:00.709Z,73.63
2022-12-27T09:27:27.549Z,83.60
2022-12-27T09:29:54.120Z,64.80
2022-12-27T09:32:20.871Z,58.85
2022-12-27T09:34:47.471Z,64.80
2022-12-27T09:37:14.095Z,58.92
2022-12-27T09:39:40.849Z,62.33
2022-12-27T09:45:14.503Z,50.55
2022-12-27T09:48:07.428Z,47.75
2022-12-27T09:50:56.206Z,39.83
2022-12-27T09:53:49.121Z,39.67
2022-12-27T09:56:23.637Z,42.35
2022-12-27T09:58:55.492Z,40.72
2022-12-27T10:01:29.086Z,42.10
2022-12-27T10:03:55.805Z,49.28
2022-12-27T10:06:48.865Z,49.78
2022-12-27T10:09:27.494Z,50.45
2022-12-27T10:12:10.636Z,54.70
2022-12-27T10:15:01.873Z,53.60
2022-12-27T10:17:52.615Z,51.40
2022-12-27T10:20:46.131Z,56.45
2022-12-27T10:23:18.233Z,47.88
2022-12-27T10:25:46.895Z,55.58
2022-12-27T10:28:23.060Z,54.83
2022-12-27T10:30:49.692Z,59.15
2022-12-27T10:33:28.462Z,59.38
2022-12-27T10:35:55.493Z,59.35
2022-12-27T10:38:22.161Z,58.10
2022-12-27T10:41:05.431Z,62.92
2022-12-27T10:43:38.667Z,56.70
2022-12-27T10:46:16.038Z,52.10
2022-12-27T10:51:49.307Z,57.60
2022-12-27T10:54:28.267Z,44.10
2022-12-27T10:56:57.131Z,42.50
2022-12-27T10:59:28.981Z,38.60
2022-12-27T11:02:02.540Z,29.10
2022-12-27T11:04:31.059Z,30.50
2022-12-27T11:06:59.973Z,31.60
2022-12-27T11:09:50.254Z,22.60
2022-12-27T11:12:26.113Z,26.52
2022-12-27T11:15:05.082Z,21.63
2022-12-27T11:17:40.413Z,23.80
2022-12-27T11:20:37.293Z,24.77
2022-12-27T11:23:09.783Z,32.28
2022-12-27T11:25:51.229Z,27.30
2022-12-27T11:28:31.984Z,22.40
2022-12-27T11:31:05.314Z,19.13
2022-12-27T11:33:47.389Z,23.50
2022-12-27T11:36:23.107Z,23.65
2022-12-27T11:38:51.091Z,22.45
2022-12-27T11:41:27.560Z,27.75
2022-12-27T11:44:13.498Z,25.38
2022-12-27T11:46:53.921Z,27.77
2022-12-27T11:49:29.352Z,36.03
2022-12-27T11:52:49.864Z,35.25
2022-12-27T11:55:40.762Z,35.22
2022-12-27T11:58:44.819Z,37.92
2022-12-27T12:01:30.911Z,37.90
2022-12-27T12:04:31.411Z,31.77
2022-12-27T12:07:19.673Z,34.13
2022-12-27T12:10:08.196Z,40.95
2022-12-27T12:12:37.505Z,64.93
2022-12-27T12:15:13.352Z,44.38
2022-12-27T12:17:52.154Z,42.03
2022-12-27T12:21:15.963Z,42.88
2022-12-27T12:24:19.781Z,35.45
2022-12-27T12:27:13.831Z,45.05
2022-12-27T12:30:02.220Z,39.03
2022-12-27T12:32:36.240Z,38.58
2022-12-27T12:35:17.768Z,38.88
2022-12-27T12:38:08.433Z,47.53
2022-12-27T12:41:02.685Z,41.53
2022-12-27T12:43:35.257Z,41.88
2022-12-27T12:46:32.451Z,46.42
2022-12-27T12:49:29.851Z,37.38
2022-12-27T12:52:26.158Z,34.95
2022-12-27T12:55:48.190Z,37.78
2022-12-27T12:58:56.308Z,36.00
2022-12-27T13:01:30.385Z,29.08
2022-12-27T13:04:09.525Z,25.08
2022-12-27T13:07:08.288Z,19.23
2022-12-27T13:09:40.726Z,14.35
2022-12-27T13:12:17.178Z,11.50
2022-12-27T13:15:02.374Z,12.77
2022-12-27T13:17:53.877Z,7.03
2022-12-27T13:20:44.700Z,3.20
2022-12-27T13:23:22.929Z,5.50
2022-12-27T13:26:00.335Z,1.92
2022-12-27T13:28:54.649Z,3.15
2022-12-27T13:31:49.160Z,4.80
2022-12-27T13:34:18.772Z,6.90
2022-12-27T13:37:17.669Z,4.20
2022-12-27T13:39:47.746Z,4.43
2022-12-27T13:42:38.694Z,5.00
2022-12-27T13:45:09.653Z,4.28
2022-12-27T13:48:15.088Z,6.35
2022-12-27T13:51:00.429Z,2.70
2022-12-27T13:53:45.823Z,8.13
2022-12-27T13:56:53.973Z,5.43
2022-12-27T14:00:00.228Z,6.57
2022-12-27T14:02:55.030Z,10.60
2022-12-27T14:08:59.691Z,6.35
2022-12-27T14:12:00.019Z,8.48
2022-12-27T14:14:28.044Z,9.23
2022-12-27T14:17:10.124Z,10.38
2022-12-27T14:19:42.854Z,11.93
2022-12-27T14:22:40.107Z,12.65
2022-12-27T14:25:24.530Z,6.05
2022-12-27T14:28:00.290Z,9.27
2022-12-27T14:30:44.937Z,13.52
2022-12-27T14:33:55.947Z,12.95
2022-12-27T14:36:37.675Z,6.93
2022-12-27T14:39:16.595Z,5.55
2022-12-27T14:42:09.182Z,9.85
2022-12-27T14:44:57.087Z,9.50
2022-12-27T14:47:45.644Z,6.95
2022-12-27T14:50:36.364Z,9.20
2022-12-27T14:53:15.104Z,6.55
2022-12-27T14:56:00.287Z,6.03
2022-12-27T14:58:55.398Z,7.90
2022-12-27T15:01:40.228Z,8.55
2022-12-27T15:04:28.357Z,15.38
2022-12-27T15:07:47.797Z,14.57
2022-12-27T15:10:36.381Z,11.98
2022-12-27T15:13:24.454Z,6.63
2022-12-27T15:16:17.847Z,2.60
2022-12-27T15:18:47.349Z,4.00
2022-12-27T15:21:23.099Z,1.70
2022-12-27T15:24:31.573Z,2.13
2022-12-27T15:27:05.078Z,4.40
2022-12-27T15:29:50.737Z,5.35
2022-12-27T15:32:26.084Z,4.32
2022-12-27T15:34:58.632Z,4.40
2022-12-27T15:37:47.008Z,6.93
2022-12-27T15:40:32.425Z,7.30
2022-12-27T15:43:20.465Z,5.65
2022-12-27T15:46:03.495Z,10.48
2022-12-27T15:48:55.094Z,6.68
2022-12-27T15:52:03.873Z,3.88
2022-12-27T15:55:04.420Z,2.58
2022-12-27T15:57:52.546Z,10.32
2022-12-27T16:00:25.064Z,4.03
2022-12-27T16:02:55.162Z,3.20
2022-12-27T16:05:26.084Z,7.95
2022-12-27T16:07:53.781Z,7.35
2022-12-27T16:10:38.530Z,7.00
2022-12-27T16:13:05.872Z,2.78
2022-12-27T16:15:53.424Z,4.80
2022-12-27T16:18:20.042Z,6.10
2022-12-27T16:21:09.501Z,15.95
2022-12-27T16:23:41.758Z,11.00
2022-12-27T16:26:28.275Z,15.05
2022-12-27T16:29:16.407Z,16.73
2022-12-27T16:31:51.098Z,18.67
2022-12-27T16:34:24.861Z,19.25
2022-12-27T16:36:54.562Z,16.15
2022-12-27T16:39:45.674Z,21.23
2022-12-27T16:42:12.607Z,19.13
2022-12-27T16:45:23.459Z,20.77
2022-12-27T16:48:11.761Z,16.13
2022-12-27T16:50:52.660Z,18.65
2022-12-27T16:53:49.973Z,16.15
2022-12-27T16:56:24.461Z,17.30
2022-12-27T16:58:51.993Z,14.43
2022-12-27T17:01:18.651Z,7.63
2022-12-27T17:03:48.172Z,4.50
2022-12-27T17:06:34.385Z,5.00
2022-12-27T17:09:10.974Z,5.15
2022-12-27T17:11:52.938Z,2.42
2022-12-27T17:14:31.714Z,3.33
2022-12-27T17:17:16.395Z,3.72
2022-12-27T17:19:49.168Z,8.77
2022-12-27T17:22:22.283Z,7.60
2022-12-27T17:24:49.593Z,5.63
2022-12-27T17:27:20.122Z,5.68
2022-12-27T17:30:14.685Z,4.00
2022-12-27T17:32:50.786Z,4.63
2022-12-27T17:35:54.070Z,5.93
2022-12-27T17:38:44.775Z,8.13
2022-12-27T17:42:03.921Z,5.53
2022-12-27T17:44:57.646Z,6.78
2022-12-27T17:48:01.665Z,6.07
2022-12-27T17:50:28.938Z,8.43
2022-12-27T17:53:29.631Z,7.32
2022-12-27T17:56:19.799Z,7.30
2022-12-27T17:58:46.566Z,4.13
2022-12-27T18:01:13.996Z,11.73
2022-12-27T18:03:45.004Z,4.10
2022-12-27T18:06:12.648Z,6.97
2022-12-27T18:08:39.881Z,5.18
2022-12-27T18:11:07.128Z,9.20
2022-12-27T18:13:37.897Z,12.68
2022-12-27T18:16:16.863Z,8.73
2022-12-27T18:18:48.060Z,12.02
2022-12-27T18:21:24.149Z,3.47
2022-12-27T18:23:53.596Z,4.43
2022-12-27T18:26:39.416Z,9.20
2022-12-27T18:29:10.600Z,4.30
2022-12-27T18:31:50.231Z,2.60
2022-12-27T18:34:22.792Z,3.47
2022-12-27T18:37:03.153Z,2.80
2022-12-27T18:39:35.657Z,3.28
2022-12-27T18:42:05.945Z,1.65
2022-12-27T18:44:43.961Z,4.50
2022-12-27T18:47:18.231Z,3.03
2022-12-27T18:49:45.212Z,6.55
2022-12-27T18:52:21.242Z,2.25
2022-12-27T18:54:47.870Z,2.95
2022-12-27T18:57:35.440Z,3.95
2022-12-27T19:00:21.952Z,4.32
2022-12-27T19:02:49.736Z,9.60
2022-12-27T19:05:19.117Z,11.63
2022-12-27T19:08:00.870Z,10.48
2022-12-27T19:10:30.796Z,5.53
2022-12-27T19:12:58.641Z,4.43
2022-12-27T19:15:25.744Z,2.63
2022-12-27T19:17:57.435Z,9.35
2022-12-27T19:20:29.933Z,4.90
2022-12-27T19:22:59.342Z,2.63
2022-12-27T19:25:28.993Z,2.15
2022-12-27T19:28:10.584Z,2.67
2022-12-27T19:30:51.409Z,3.33
2022-12-27T19:33:31.153Z,2.20
2022-12-27T19:35:58.070Z,5.95
2022-12-27T19:38:27.955Z,10.68
2022-12-27T19:41:03.090Z,5.65
2022-12-27T19:43:38.073Z,4.90
2022-12-27T19:46:05.201Z,6.75
2022-12-27T19:48:32.395Z,7.40
2022-12-27T19:50:59.723Z,8.88
2022-12-27T19:53:57.577Z,7.35
2022-12-27T19:56:25.258Z,7.03
2022-12-27T19:58:51.871Z,5.47
2022-12-27T20:01:18.780Z,4.95
2022-12-27T20:03:45.810Z,5.53
2022-12-27T20:06:20.735Z,7.95
2022-12-27T20:08:52.022Z,4.18
2022-12-27T20:11:21.723Z,5.05
2022-12-27T20:13:49.311Z,2.47
2022-12-27T20:16:18.991Z,4.68
2022-12-27T20:18:46.525Z,10.25
2022-12-27T20:21:15.928Z,6.82
2022-12-27T20:23:42.651Z,2.70
2022-12-27T20:26:09.869Z,2.65
2022-12-27T20:28:36.613Z,3.15
2022-12-27T20:31:13.129Z,3.20
2022-12-27T20:33:40.069Z,1.35
2022-12-27T20:36:07.766Z,5.70
2022-12-27T20:38:35.408Z,7.30
2022-12-27T20:41:11.968Z,2.90
2022-12-27T20:43:38.748Z,2.35
2022-12-27T20:46:10.305Z,3.03
2022-12-27T20:48:38.673Z,2.80
2022-12-27T20:51:07.463Z,5.93
2022-12-27T20:53:34.305Z,3.40
2022-12-27T20:56:01.276Z,3.88
2022-12-27T20:58:28.048Z,3.47
2022-12-27T21:00:54.689Z,2.42
2022-12-27T21:03:21.614Z,2.75
2022-12-27T21:05:49.502Z,2.03
2022-12-27T21:08:16.372Z,2.83
2022-12-27T21:10:43.272Z,2.38
2022-12-27T21:13:09.851Z,4.20
2022-12-27T21:15:42.293Z,2.85
2022-12-27T21:18:09.374Z,3.58
2022-12-27T21:20:35.973Z,5.70
2022-12-27T21:23:02.682Z,2.33
2022-12-27T21:25:29.405Z,3.17
2022-12-27T21:27:56.095Z,6.03
2022-12-27T21:30:22.871Z,7.30
2022-12-27T21:32:49.505Z,2.53
2022-12-27T21:35:16.336Z,2.90
2022-12-27T21:37:42.993Z,3.17
2022-12-27T21:40:10.346Z,7.53
2022-12-27T21:42:36.927Z,3.15
2022-12-27T21:45:04.276Z,4.55
2022-12-27T21:47:31.697Z,3.17
2022-12-27T21:49:58.559Z,4.45
2022-12-27T21:52:25.386Z,3.20
2022-12-27T21:54:52.080Z,5.68
2022-12-27T21:57:18.663Z,6.85
2022-12-27T21:59:45.232Z,3.85
2022-12-27T22:02:12.184Z,4.50
2022-12-27T22:04:39.202Z,8.20
2022-12-27T22:07:06.178Z,4.72
2022-12-27T22:09:32.847Z,5.07
2022-12-27T22:11:59.502Z,4.15
2022-12-27T22:14:28.393Z,4.82
2022-12-27T22:16:56.124Z,4.05
2022-12-27T22:19:23.186Z,6.38
2022-12-27T22:21:49.803Z,5.90
2022-12-27T22:24:20.106Z,6.07
2022-12-27T22:26:48.803Z,4.80
2022-12-27T22:29:15.712Z,3.85
2022-12-27T22:31:42.949Z,4.25
2022-12-27T22:34:09.755Z,4.80
2022-12-27T22:36:36.504Z,4.85
2022-12-27T22:39:03.716Z,4.18
2022-12-27T22:41:32.781Z,4.35
2022-12-27T22:44:20.849Z,4.75
2022-12-27T22:49:34.912Z,4.72
2022-12-27T22:52:01.991Z,4.40
2022-12-27T22:55:05.147Z,3.55
2022-12-27T22:57:15.161Z,3.83
2022-12-27T22:59:41.915Z,5.00
2022-12-27T23:02:08.510Z,4.85
2022-12-27T23:04:35.356Z,4.18
2022-12-27T23:07:02.231Z,4.40
2022-12-27T23:09:29.388Z,5.18
2022-12-27T23:11:56.169Z,5.50
2022-12-27T23:14:23.065Z,5.65
2022-12-27T23:16:49.984Z,5.90
2022-12-27T23:19:19.545Z,5.68
2022-12-27T23:21:46.633Z,6.38
2022-12-27T23:24:13.880Z,5.70
2022-12-27T23:26:41.249Z,6.22
2022-12-27T23:29:08.309Z,5.53
2022-12-27T23:31:34.932Z,7.90
2022-12-27T23:34:01.676Z,7.90
2022-12-27T23:36:28.257Z,5.70
2022-12-27T23:38:55.621Z,5.57
2022-12-27T23:41:24.441Z,6.10
2022-12-27T23:43:54.265Z,6.07
2022-12-27T23:46:29.536Z,5.65
2022-12-27T23:48:57.716Z,5.65
2022-12-27T23:51:25.415Z,5.18
2022-12-27T23:53:52.170Z,5.15
2022-12-27T23:56:20.057Z,5.38
2022-12-27T23:58:47.416Z,5.90
